Time;durP1;ratioP1;P1;durP2;ratioP2;P2;SDS_P1;SDS_P2;PMS_P1;PMS_P2;Temp;Humidity;BMP_temperature;BMP_pressure;BME280_temperature;BME280_humidity;BME280_pressure;Samples;Min_cycle;Max_cycle;Signal;HPM_P1;HPM_P2
2021/12/29 00:01:27;;;;;;;1.43;0.80;;;;;;;8.19;100.00;95108.34;5025732;28;105630;-62
2021/12/29 00:03:55;;;;;;;3.40;1.13;;;;;;;8.25;100.00;95115.25;5026781;28;102208;-62
2021/12/29 00:06:22;;;;;;;3.60;1.80;;;;;;;8.58;100.00;95106.72;5026492;28;104758;-62
2021/12/29 00:08:51;;;;;;;2.07;1.00;;;;;;;8.52;100.00;95089.25;5026080;28;105887;-62
2021/12/29 00:11:18;;;;;;;2.87;2.00;;;;;;;8.50;100.00;95108.06;5026626;28;102060;-62
2021/12/29 00:13:46;;;;;;;2.90;1.43;;;;;;;8.77;100.00;95092.63;5029453;28;105174;-62
2021/12/29 00:16:14;;;;;;;2.40;1.00;;;;;;;8.71;100.00;95092.91;5026661;28;102146;-62
2021/12/29 00:18:41;;;;;;;3.43;1.00;;;;;;;8.66;100.00;95095.56;5026678;28;105332;-62
2021/12/29 00:21:08;;;;;;;2.30;1.43;;;;;;;8.59;100.00;95092.41;5026054;28;105475;-62
2021/12/29 00:23:36;;;;;;;3.93;1.27;;;;;;;8.49;100.00;95100.38;5027498;28;102434;-62
2021/12/29 00:26:05;;;;;;;4.70;1.90;;;;;;;8.63;100.00;95096.13;5026317;28;104777;-62
2021/12/29 00:28:32;;;;;;;3.80;1.30;;;;;;;8.61;100.00;95109.63;5025448;28;105012;-62
2021/12/29 00:31:00;;;;;;;3.40;1.60;;;;;;;8.61;100.00;95124.75;5026600;28;102528;-62
2021/12/29 00:33:47;;;;;;;2.90;1.10;;;;;;;8.53;100.00;95104.06;5029454;27;103201;-62
2021/12/29 00:36:40;;;;;;;3.70;1.50;;;;;;;8.54;100.00;95103.81;5031785;27;103018;-62
2021/12/29 00:39:25;;;;;;;3.40;1.03;;;;;;;8.50;100.00;95102.75;5029067;28;102040;-62
2021/12/29 00:42:12;;;;;;;2.07;0.90;;;;;;;8.43;100.00;95096.97;5028036;28;102228;-62
2021/12/29 00:44:58;;;;;;;3.23;1.17;;;;;;;8.50;100.00;95104.63;5028505;28;101693;-62
2021/12/29 00:47:29;;;;;;;3.43;1.00;;;;;;;8.62;100.00;95089.22;5029833;28;104748;-62
2021/12/29 00:49:58;;;;;;;3.40;1.10;;;;;;;8.58;100.00;95081.03;5030837;28;102537;-62
2021/12/29 00:52:25;;;;;;;2.53;1.10;;;;;;;8.60;100.00;95070.94;5030465;27;101864;-62
2021/12/29 00:54:52;;;;;;;4.57;1.23;;;;;;;8.58;100.00;95098.78;5029696;28;105099;-62
2021/12/29 00:57:21;;;;;;;3.67;1.00;;;;;;;8.67;100.00;95118.38;5028913;28;105319;-62
2021/12/29 00:59:48;;;;;;;3.93;0.90;;;;;;;8.85;100.00;95109.81;5034066;28;101942;-62
2021/12/29 01:02:15;;;;;;;2.67;1.10;;;;;;;8.79;100.00;95110.91;5028959;28;104433;-62
2021/12/29 01:04:42;;;;;;;3.03;1.20;;;;;;;8.81;100.00;95108.78;5029435;28;102133;-61
2021/12/29 01:07:09;;;;;;;4.40;1.30;;;;;;;8.71;100.00;95122.84;5029512;28;104346;-62
2021/12/29 01:09:36;;;;;;;5.00;1.33;;;;;;;8.79;100.00;95126.81;5030100;28;102774;-62
2021/12/29 01:12:04;;;;;;;5.60;1.37;;;;;;;8.77;100.00;95118.34;5030890;28;101818;-61
2021/12/29 01:14:33;;;;;;;5.20;1.30;;;;;;;8.72;100.00;95111.19;5029167;28;105384;-62
2021/12/29 01:17:00;;;;;;;3.13;1.10;;;;;;;8.72;100.00;95142.97;5029962;28;102811;-62
2021/12/29 01:19:31;;;;;;;4.40;1.30;;;;;;;8.67;100.00;95139.56;5032472;28;102076;-62
2021/12/29 01:22:00;;;;;;;4.60;1.10;;;;;;;8.75;100.00;95146.97;5028904;28;105633;-62
2021/12/29 01:24:30;;;;;;;5.50;1.20;;;;;;;8.78;100.00;95133.19;5029142;28;101902;-62
2021/12/29 01:26:59;;;;;;;4.23;1.13;;;;;;;8.85;100.00;95133.69;5029939;27;102910;-62
2021/12/29 01:29:28;;;;;;;5.67;1.20;;;;;;;8.86;100.00;95137.91;5030007;28;102772;-62
2021/12/29 01:31:57;;;;;;;4.63;1.10;;;;;;;8.87;100.00;95147.44;5028913;28;102127;-62
2021/12/29 01:34:25;;;;;;;4.07;1.17;;;;;;;8.88;100.00;95141.09;5029108;28;105194;-62
2021/12/29 01:36:52;;;;;;;5.83;1.30;;;;;;;8.86;100.00;95137.91;5029066;28;103958;-62
2021/12/29 01:39:20;;;;;;;4.33;1.47;;;;;;;8.82;100.00;95150.13;5028656;28;102243;-62
2021/12/29 01:41:50;;;;;;;5.20;1.30;;;;;;;8.76;100.00;95153.84;5031554;28;104059;-62
2021/12/29 01:44:21;;;;;;;3.43;0.90;;;;;;;8.74;100.00;95150.69;5028752;27;102536;-61
2021/12/29 01:46:48;;;;;;;5.33;1.47;;;;;;;8.68;100.00;95157.06;5028300;28;104893;-62
2021/12/29 01:49:16;;;;;;;6.20;1.60;;;;;;;8.67;100.00;95160.78;5027940;28;105901;-62
2021/12/29 01:51:49;;;;;;;4.23;1.30;;;;;;;8.69;100.00;95174.53;5028879;28;101815;-62
2021/12/29 01:54:23;;;;;;;5.27;1.60;;;;;;;8.70;100.00;95178.75;5028605;28;104822;-61
2021/12/29 01:56:54;;;;;;;7.50;1.60;;;;;;;8.68;100.00;95168.44;5029996;27;102473;-62
2021/12/29 01:59:24;;;;;;;5.40;1.27;;;;;;;8.76;100.00;95165.25;5028272;28;102370;-62
2021/12/29 02:01:51;;;;;;;4.67;1.70;;;;;;;8.91;100.00;95172.38;5028795;28;104373;-62
2021/12/29 02:04:20;;;;;;;5.00;1.40;;;;;;;8.93;100.00;95156.97;5030912;28;105546;-62
2021/12/29 02:06:48;;;;;;;7.93;1.53;;;;;;;8.86;100.00;95165.22;5027847;28;105502;-61
2021/12/29 02:09:15;;;;;;;5.07;1.50;;;;;;;8.77;100.00;95171.34;5027824;28;105307;-62
2021/12/29 02:11:42;;;;;;;5.50;1.33;;;;;;;8.85;100.00;95168.13;5028543;28;101910;-62
2021/12/29 02:14:10;;;;;;;6.57;1.70;;;;;;;8.81;100.00;95172.38;5027961;28;104925;-62
2021/12/29 02:16:38;;;;;;;4.87;1.63;;;;;;;8.74;100.00;95170.03;5027860;28;105523;-62
2021/12/29 02:19:08;;;;;;;5.67;1.13;;;;;;;8.70;100.00;95166.31;5027952;28;101906;-61
2021/12/29 02:21:38;;;;;;;7.43;1.40;;;;;;;8.68;100.00;95173.72;5029483;28;103390;-62
2021/12/29 02:24:21;;;;;;;4.93;1.30;;;;;;;8.72;100.00;95166.06;5027537;28;105805;-62
2021/12/29 02:26:48;;;;;;;4.77;1.20;;;;;;;8.87;100.00;95172.13;5032057;28;101999;-62
2021/12/29 02:29:18;;;;;;;6.33;1.20;;;;;;;8.78;100.00;95172.94;5027072;28;104197;-62
2021/12/29 02:31:46;;;;;;;4.70;1.27;;;;;;;8.72;100.00;95174.00;5028342;28;101945;-62
2021/12/29 02:34:15;;;;;;;5.43;1.63;;;;;;;8.92;100.00;95171.28;5027674;28;105611;-62
2021/12/29 02:36:46;;;;;;;5.70;1.33;;;;;;;8.89;100.00;95179.81;5027241;28;104659;-62
2021/12/29 02:39:15;;;;;;;6.73;1.40;;;;;;;8.93;100.00;95179.00;5029328;27;101738;-62
2021/12/29 02:41:46;;;;;;;5.20;1.40;;;;;;;8.96;100.00;95181.13;5027933;28;105184;-62
2021/12/29 02:44:20;;;;;;;5.57;1.30;;;;;;;8.95;100.00;95189.34;5027373;28;104298;-62
2021/12/29 02:46:47;;;;;;;6.13;1.50;;;;;;;8.88;100.00;95194.13;5029452;28;101744;-62
2021/12/29 02:49:14;;;;;;;5.37;1.50;;;;;;;8.86;100.00;95201.53;5030807;28;104963;-62
2021/12/29 02:51:43;;;;;;;7.50;1.60;;;;;;;8.83;100.00;95229.38;5027626;28;102212;-62
2021/12/29 02:54:11;;;;;;;7.13;1.23;;;;;;;8.81;100.00;95172.38;5027364;28;105232;-62
2021/12/29 02:56:38;;;;;;;3.77;1.10;;;;;;;8.83;100.00;95208.16;5026800;27;103694;-61
2021/12/29 02:59:05;;;;;;;5.93;1.40;;;;;;;8.74;100.00;95203.69;5027444;28;102446;-62
2021/12/29 03:01:32;;;;;;;4.60;1.40;;;;;;;8.74;100.00;95215.09;5028289;28;105122;-62
2021/12/29 03:04:00;;;;;;;6.07;1.43;;;;;;;8.68;100.00;95218.00;5026762;28;104940;-62
2021/12/29 03:06:28;;;;;;;5.37;1.50;;;;;;;8.71;100.00;95220.91;5027390;28;102005;-62
2021/12/29 03:08:57;;;;;;;4.77;1.63;;;;;;;8.78;100.00;95213.47;5027311;28;105260;-61
2021/12/29 03:11:24;;;;;;;4.77;1.20;;;;;;;8.74;100.00;95220.38;5030357;28;104230;-62
2021/12/29 03:13:52;;;;;;;6.50;1.33;;;;;;;8.79;100.00;95236.25;5027841;28;105075;-62
2021/12/29 03:16:20;;;;;;;5.30;1.30;;;;;;;8.84;100.00;95220.34;5026843;28;103970;-61
2021/12/29 03:18:47;;;;;;;7.93;1.50;;;;;;;8.81;100.00;95228.03;5027464;28;102331;-62
2021/12/29 03:21:16;;;;;;;4.87;1.30;;;;;;;8.86;100.00;95228.84;5027938;28;104791;-60
2021/12/29 03:23:43;;;;;;;4.63;1.27;;;;;;;8.85;100.00;95226.47;5027006;28;105368;-59
2021/12/29 03:26:11;;;;;;;3.43;1.00;;;;;;;8.92;100.00;95237.56;5027124;28;102022;-59
2021/12/29 03:28:39;;;;;;;4.23;1.13;;;;;;;8.94;100.00;95251.38;5028364;28;102395;-60
2021/12/29 03:31:10;;;;;;;2.87;1.07;;;;;;;9.05;100.00;95245.00;5030221;28;104655;-60
2021/12/29 03:33:38;;;;;;;4.57;1.10;;;;;;;9.00;100.00;95255.59;5027314;28;104900;-60
2021/12/29 03:36:06;;;;;;;3.40;1.20;;;;;;;8.99;100.00;95256.66;5026662;28;105324;-60
2021/12/29 03:38:36;;;;;;;6.00;1.47;;;;;;;8.96;100.00;95259.84;5026652;28;102087;-60
2021/12/29 03:41:06;;;;;;;2.47;0.90;;;;;;;8.96;100.00;95259.84;5027012;28;105545;-60
2021/12/29 03:43:35;;;;;;;3.47;1.00;;;;;;;9.07;100.00;95259.56;5026110;28;106625;-60
2021/12/29 03:46:05;;;;;;;4.73;1.10;;;;;;;9.14;100.00;95289.25;5027618;28;101966;-60
2021/12/29 03:48:33;;;;;;;3.70;0.80;;;;;;;9.12;100.00;95280.78;5026899;28;105534;-60
2021/12/29 03:51:01;;;;;;;3.10;1.10;;;;;;;9.05;100.00;95285.53;5026308;28;106041;-60
2021/12/29 03:53:28;;;;;;;2.70;1.03;;;;;;;9.15;100.00;95305.94;5032065;28;102119;-60
2021/12/29 03:55:57;;;;;;;1.67;0.90;;;;;;;9.02;100.00;95298.53;5025736;28;105472;-60
2021/12/29 03:58:26;;;;;;;1.60;0.53;;;;;;;9.04;100.00;95307.03;5026930;28;101888;-60
2021/12/29 04:00:59;;;;;;;0.90;0.50;;;;;;;9.02;100.00;95309.16;5026578;28;104803;-60
2021/12/29 04:03:26;;;;;;;1.47;0.50;;;;;;;8.96;100.00;95320.81;5026272;28;105295;-60
2021/12/29 04:05:53;;;;;;;2.17;0.80;;;;;;;8.91;100.00;95311.03;5026263;28;101866;-60
2021/12/29 04:08:21;;;;;;;1.87;0.70;;;;;;;8.87;100.00;95309.16;5028212;27;105615;-60
2021/12/29 04:10:48;;;;;;;0.60;0.40;;;;;;;8.80;100.00;95324.53;5029860;28;105705;-60
2021/12/29 04:13:15;;;;;;;1.80;0.80;;;;;;;8.79;100.00;95309.69;5030940;28;101889;-60
2021/12/29 04:15:44;;;;;;;2.37;0.60;;;;;;;8.71;100.00;95342.81;5035227;28;102971;-60
2021/12/29 04:18:26;;;;;;;1.30;0.80;;;;;;;8.66;100.00;95328.75;5029881;28;101892;-60
2021/12/29 04:20:57;;;;;;;1.97;0.70;;;;;;;8.58;100.00;95339.88;5030241;28;105343;-60
2021/12/29 04:23:28;;;;;;;0.70;0.40;;;;;;;8.53;100.00;95339.88;5030162;28;105378;-60
2021/12/29 04:25:57;;;;;;;1.70;0.70;;;;;;;8.44;100.00;95347.53;5031515;28;102046;-60
2021/12/29 04:28:26;;;;;;;3.43;1.03;;;;;;;8.42;100.00;95349.66;5031487;27;102483;-60
2021/12/29 04:30:55;;;;;;;3.70;0.90;;;;;;;8.43;100.00;95361.03;5012585;28;104320;-60
2021/12/29 04:33:26;;;;;;;1.00;0.77;;;;;;;8.39;100.00;95358.13;5031593;27;102109;-60
2021/12/29 04:35:54;;;;;;;1.10;0.50;;;;;;;8.40;100.00;95356.28;5030036;28;105235;-60
2021/12/29 04:38:24;;;;;;;2.93;0.80;;;;;;;8.42;100.00;95370.06;5032184;28;105376;-60
2021/12/29 04:40:53;;;;;;;1.60;0.67;;;;;;;8.38;100.00;95366.31;5029550;28;104487;-60
2021/12/29 04:43:21;;;;;;;1.67;0.77;;;;;;;8.37;100.00;95375.34;5030528;28;102687;-60
2021/12/29 04:45:48;;;;;;;2.93;0.70;;;;;;;8.39;100.00;95365.28;5030861;27;101865;-60
2021/12/29 04:48:16;;;;;;;1.30;0.60;;;;;;;8.36;100.00;95381.69;5031473;27;102142;-60
2021/12/29 04:50:51;;;;;;;1.57;0.67;;;;;;;8.36;100.00;95387.00;5029516;28;105865;-60
2021/12/29 04:53:20;;;;;;;2.37;0.83;;;;;;;8.35;100.00;95394.13;5031000;27;101831;-60
2021/12/29 04:55:49;;;;;;;1.80;0.80;;;;;;;8.38;100.00;95383.03;5030870;27;102888;-60
2021/12/29 04:58:18;;;;;;;1.57;0.90;;;;;;;8.42;100.00;95384.09;5029091;28;105135;-60
2021/12/29 05:00:46;;;;;;;1.53;0.70;;;;;;;8.44;100.00;95379.34;5032538;28;102101;-60
2021/12/29 05:03:13;;;;;;;5.30;1.13;;;;;;;8.45;100.00;95385.44;5028506;28;104205;-60
2021/12/29 05:05:53;;;;;;;1.70;0.70;;;;;;;8.47;100.00;95393.91;5031049;27;101852;-60
2021/12/29 05:08:29;;;;;;;1.47;0.67;;;;;;;8.49;100.00;95386.50;5030444;28;103037;-60
2021/12/29 05:11:01;;;;;;;1.70;0.50;;;;;;;8.45;100.00;95375.63;5028934;28;105366;-60
2021/12/29 05:13:29;;;;;;;2.37;0.73;;;;;;;8.43;100.00;95387.53;5028615;28;102004;-59
2021/12/29 05:15:57;;;;;;;1.37;0.70;;;;;;;8.52;100.00;95385.97;5029223;28;105242;-60
2021/12/29 05:18:25;;;;;;;3.80;1.17;;;;;;;8.49;100.00;95405.03;5028112;28;105200;-60
2021/12/29 05:20:52;;;;;;;1.57;0.70;;;;;;;8.54;100.00;95416.44;5029762;28;102215;-60
2021/12/29 05:23:19;;;;;;;1.97;0.80;;;;;;;8.57;100.00;95405.31;5031915;28;104011;-59
2021/12/29 05:25:49;;;;;;;4.03;0.73;;;;;;;8.55;100.00;95415.41;5029004;28;102039;-60
2021/12/29 05:28:17;;;;;;;3.40;1.07;;;;;;;8.59;100.00;95413.00;5028841;28;103938;-59
2021/12/29 05:30:45;;;;;;;3.20;1.00;;;;;;;8.58;100.00;95416.72;5027398;28;105569;-60
2021/12/29 05:33:13;;;;;;;2.10;0.80;;;;;;;8.53;100.00;95414.06;5029035;28;102546;-60
2021/12/29 05:35:40;;;;;;;2.00;0.87;;;;;;;8.51;100.00;95421.47;5028968;28;105311;-60
2021/12/29 05:38:07;;;;;;;4.40;1.03;;;;;;;8.45;100.00;95428.59;5028146;28;105905;-60
2021/12/29 05:40:35;;;;;;;2.40;1.03;;;;;;;8.48;100.00;95437.88;5030325;28;102204;-60
2021/12/29 05:43:04;;;;;;;3.03;0.90;;;;;;;8.54;100.00;95436.84;5031812;28;104040;-60
2021/12/29 05:45:31;;;;;;;1.43;1.20;;;;;;;8.56;100.00;95429.44;5028417;28;102252;-60
2021/12/29 05:47:58;;;;;;;5.50;1.93;;;;;;;8.51;100.00;95426.78;5028616;28;104013;-60
2021/12/29 05:50:27;;;;;;;2.70;1.57;;;;;;;8.49;100.00;95428.88;5028024;28;105493;-59
2021/12/29 05:52:56;;;;;;;3.60;1.60;;;;;;;8.52;100.00;95452.22;5028837;28;102013;-60
2021/12/29 05:55:24;;;;;;;3.73;2.10;;;;;;;8.54;100.00;95452.75;5028751;28;103771;-60
2021/12/29 05:57:51;;;;;;;3.07;1.40;;;;;;;8.61;100.00;95446.16;5029887;28;103220;-60
2021/12/29 06:00:22;;;;;;;2.83;1.43;;;;;;;8.60;100.00;95444.56;5027958;28;102176;-60
2021/12/29 06:02:49;;;;;;;2.03;0.97;;;;;;;8.66;100.00;95451.47;5028600;28;105199;-60
2021/12/29 06:05:17;;;;;;;2.97;1.10;;;;;;;8.66;100.00;95458.59;5032098;28;102624;-60
2021/12/29 06:07:45;;;;;;;3.03;0.80;;;;;;;8.73;100.00;95467.13;5028680;28;105483;-60
2021/12/29 06:10:12;;;;;;;2.13;0.70;;;;;;;8.71;100.00;95463.91;5027790;28;105371;-60
2021/12/29 06:12:40;;;;;;;2.57;0.90;;;;;;;8.68;100.00;95465.25;5028758;28;102003;-60
2021/12/29 06:15:08;;;;;;;2.13;0.77;;;;;;;8.69;100.00;95464.19;5029447;28;102904;-60
2021/12/29 06:17:37;;;;;;;2.77;0.83;;;;;;;8.64;100.00;95484.56;5027264;28;106305;-60
2021/12/29 06:20:06;;;;;;;3.40;1.00;;;;;;;8.65;100.00;95470.25;5028303;28;102219;-60
2021/12/29 06:22:33;;;;;;;2.57;0.70;;;;;;;8.68;100.00;95472.41;5028148;28;103836;-60
2021/12/29 06:25:00;;;;;;;2.53;0.70;;;;;;;8.67;100.00;95476.13;5027530;28;104300;-60
2021/12/29 06:27:27;;;;;;;3.23;0.90;;;;;;;8.72;100.00;95474.25;5031615;28;102142;-60
2021/12/29 06:29:55;;;;;;;1.70;0.80;;;;;;;8.73;100.00;95475.84;5027170;27;105184;-59
2021/12/29 06:32:22;;;;;;;2.60;0.83;;;;;;;8.68;100.00;95469.75;5027285;28;102055;-60
2021/12/29 06:34:52;;;;;;;1.73;0.67;;;;;;;8.73;100.00;95467.13;5028343;28;103838;-60
2021/12/29 06:37:19;;;;;;;3.40;0.80;;;;;;;8.75;100.00;95478.25;5027917;28;106467;-60
2021/12/29 06:39:47;;;;;;;2.70;0.80;;;;;;;8.83;100.00;95494.44;5028133;28;101965;-60
2021/12/29 06:42:16;;;;;;;2.97;0.90;;;;;;;8.77;100.00;95503.44;5029839;28;102339;-60
2021/12/29 06:44:45;;;;;;;1.70;0.80;;;;;;;8.74;100.00;95511.13;5029859;28;102509;-60
2021/12/29 06:47:12;;;;;;;1.80;0.70;;;;;;;8.74;100.00;95511.13;5027851;28;101859;-60
2021/12/29 06:49:40;;;;;;;3.30;0.80;;;;;;;8.76;100.00;95511.66;5030537;28;105605;-60
2021/12/29 06:52:11;;;;;;;1.83;0.67;;;;;;;8.72;100.00;95523.84;5027756;28;102004;-60
2021/12/29 06:54:39;;;;;;;1.97;0.73;;;;;;;8.74;100.00;95521.72;5027859;28;105077;-60
2021/12/29 06:57:06;;;;;;;1.83;0.67;;;;;;;8.85;100.00;95534.75;5026683;28;105834;-60
2021/12/29 06:59:33;;;;;;;2.13;0.70;;;;;;;8.81;100.00;95536.34;5027761;28;102727;-60
2021/12/29 07:02:01;;;;;;;1.03;0.50;;;;;;;8.86;100.00;95544.31;5027259;28;105133;-60
2021/12/29 07:04:29;;;;;;;2.87;0.70;;;;;;;8.82;100.00;95550.38;5026846;28;105076;-60
2021/12/29 07:06:56;;;;;;;2.27;0.70;;;;;;;8.87;100.00;95556.50;5027676;28;101929;-60
2021/12/29 07:09:25;;;;;;;2.13;0.67;;;;;;;8.84;100.00;95554.34;5027318;28;104791;-60
2021/12/29 07:11:53;;;;;;;3.47;0.70;;;;;;;8.89;100.00;95572.16;5030542;28;103971;-60
2021/12/29 07:14:21;;;;;;;1.57;0.70;;;;;;;8.86;100.00;95572.66;5027558;28;104062;-60
2021/12/29 07:16:49;;;;;;;1.33;0.60;;;;;;;8.84;100.00;95570.25;5026806;28;105031;-60
2021/12/29 07:19:17;;;;;;;3.53;0.80;;;;;;;8.88;100.00;95571.34;5027570;28;102027;-60
2021/12/29 07:21:44;;;;;;;1.10;0.73;;;;;;;8.86;100.00;95593.88;5027326;28;103579;-60
2021/12/29 07:24:13;;;;;;;2.97;0.70;;;;;;;8.89;100.00;95588.84;5026636;28;105842;-60
2021/12/29 07:26:41;;;;;;;1.57;0.53;;;;;;;8.87;100.00;95587.50;5027490;28;102090;-60
2021/12/29 07:29:09;;;;;;;0.93;0.60;;;;;;;8.81;100.00;95592.00;5027171;28;103516;-60
2021/12/29 07:31:36;;;;;;;0.60;0.60;;;;;;;8.91;100.00;95601.84;5026548;28;103916;-60
2021/12/29 07:34:03;;;;;;;1.10;0.70;;;;;;;8.91;100.00;95607.97;5030448;28;101829;-60
2021/12/29 07:36:31;;;;;;;1.17;0.70;;;;;;;8.90;100.00;95600.25;5026797;28;104077;-60
2021/12/29 07:38:57;;;;;;;0.87;0.80;;;;;;;8.88;100.00;95589.91;5026289;28;101909;-60
2021/12/29 07:41:24;;;;;;;1.47;0.80;;;;;;;8.95;100.00;95601.06;5027163;28;105962;-60
2021/12/29 07:43:54;;;;;;;1.50;0.80;;;;;;;8.92;100.00;95590.19;5027432;28;105040;-60
2021/12/29 07:46:23;;;;;;;1.43;0.63;;;;;;;8.90;100.00;95602.91;5027102;28;102041;-60
2021/12/29 07:48:51;;;;;;;1.87;1.10;;;;;;;8.96;100.00;95596.56;5027531;28;106265;-60
2021/12/29 07:51:18;;;;;;;0.70;0.70;;;;;;;8.97;100.00;95598.97;5026518;28;105343;-60
2021/12/29 07:53:44;;;;;;;2.10;0.80;;;;;;;8.99;100.00;95598.72;5030806;28;102199;-60
2021/12/29 07:56:12;;;;;;;1.07;0.70;;;;;;;8.97;100.00;95606.13;5025876;28;105339;-60
2021/12/29 07:58:40;;;;;;;1.10;0.70;;;;;;;8.96;100.00;95599.22;5026241;28;102038;-60
2021/12/29 08:01:10;;;;;;;1.97;0.70;;;;;;;8.95;100.00;95624.16;5026760;28;105451;-60
2021/12/29 08:03:39;;;;;;;1.10;0.70;;;;;;;8.98;100.00;95636.88;5026653;28;103888;-60
2021/12/29 08:06:08;;;;;;;3.97;1.47;;;;;;;8.98;100.00;95634.22;5026880;28;101866;-60
2021/12/29 08:08:36;;;;;;;1.60;0.60;;;;;;;9.01;100.00;95639.81;5025725;28;105304;-60
2021/12/29 08:11:03;;;;;;;0.97;0.70;;;;;;;9.02;100.00;95646.72;5026434;28;105550;-60
2021/12/29 08:13:30;;;;;;;6.67;1.07;;;;;;;9.04;100.00;95649.09;5027008;28;102045;-60
2021/12/29 08:15:58;;;;;;;8.37;1.33;;;;;;;9.06;100.00;95652.31;5029185;28;105587;-60
2021/12/29 08:18:27;;;;;;;1.60;0.60;;;;;;;9.19;100.00;95647.31;5028279;27;102074;-60
2021/12/29 08:20:54;;;;;;;2.80;0.83;;;;;;;9.12;100.00;95651.25;5028357;28;105690;-60
2021/12/29 08:23:21;;;;;;;2.67;0.80;;;;;;;9.10;100.00;95653.38;5026943;28;103667;-59
2021/12/29 08:25:49;;;;;;;3.40;0.97;;;;;;;9.11;100.00;95665.59;5026619;28;101929;-59
2021/12/29 08:28:17;;;;;;;3.40;0.87;;;;;;;9.12;100.00;95669.84;5026627;28;105130;-59
2021/12/29 08:30:45;;;;;;;5.83;1.30;;;;;;;9.11;100.00;95666.38;5025472;28;105443;-59
2021/12/29 08:33:12;;;;;;;2.23;0.80;;;;;;;9.08;100.00;95676.69;5027160;28;101993;-59
2021/12/29 08:35:41;;;;;;;5.03;0.90;;;;;;;9.15;100.00;95671.94;5026788;28;105238;-59
2021/12/29 08:38:08;;;;;;;1.13;1.00;;;;;;;9.15;100.00;95669.31;5028729;28;105428;-59
2021/12/29 08:40:35;;;;;;;5.90;1.10;;;;;;;9.15;100.00;95658.69;5026457;28;105133;-59
2021/12/29 08:43:03;;;;;;;3.40;0.97;;;;;;;9.14;100.00;95655.25;5025710;28;105276;-59
2021/12/29 08:45:47;;;;;;;1.60;0.70;;;;;;;9.17;100.00;95660.03;5026898;28;102224;-59
2021/12/29 08:48:15;;;;;;;4.13;0.80;;;;;;;9.19;100.00;95659.78;5027949;28;105145;-60
2021/12/29 08:50:44;;;;;;;1.77;0.80;;;;;;;9.18;100.00;95664.31;5028538;28;103189;-60
2021/12/29 08:53:12;;;;;;;7.83;1.23;;;;;;;9.21;100.00;95649.72;5027652;27;101927;-60
2021/12/29 08:55:47;;;;;;;2.13;0.60;;;;;;;9.20;100.00;95659.53;5031545;28;103779;-60
2021/12/29 08:58:22;;;;;;;3.80;0.70;;;;;;;9.24;100.00;95670.41;5030381;28;105563;-60
2021/12/29 09:00:49;;;;;;;2.57;0.83;;;;;;;9.24;100.00;95665.91;5033988;28;101971;-60
2021/12/29 09:03:16;;;;;;;2.00;0.90;;;;;;;9.26;100.00;95674.41;5030568;28;105867;-60
2021/12/29 09:05:53;;;;;;;2.53;0.80;;;;;;;9.31;100.00;95673.63;5031061;28;101859;-60
2021/12/29 09:08:20;;;;;;;2.30;0.80;;;;;;;9.37;100.00;95676.03;5030591;28;104976;-60
2021/12/29 09:10:48;;;;;;;2.53;0.70;;;;;;;9.39;100.00;95678.44;5030350;28;106065;-60
2021/12/29 09:13:16;;;;;;;2.23;0.90;;;;;;;9.37;100.00;95689.31;5030797;28;102101;-60
2021/12/29 09:15:56;;;;;;;5.20;1.10;;;;;;;9.45;100.00;95672.91;5030979;28;104280;-60
2021/12/29 09:18:24;;;;;;;4.50;1.03;;;;;;;9.45;100.00;95701.28;5030414;28;105658;-60
2021/12/29 09:20:53;;;;;;;5.73;1.53;;;;;;;9.47;100.00;95696.50;5030831;28;101932;-60
2021/12/29 09:23:21;;;;;;;6.70;1.23;;;;;;;9.49;100.00;95695.19;5033722;28;103673;-60
2021/12/29 09:25:54;;;;;;;9.40;1.80;;;;;;;9.50;100.00;95709.25;5031220;28;101913;-60
2021/12/29 09:28:35;;;;;;;3.77;1.10;;;;;;;9.60;100.00;95733.19;5030916;28;104078;-59
2021/12/29 09:31:03;;;;;;;6.60;1.37;;;;;;;9.63;100.00;95706.13;5029685;28;104961;-59
2021/12/29 09:33:30;;;;;;;2.93;0.97;;;;;;;9.64;100.00;95703.22;5030541;28;102077;-59
2021/12/29 09:36:07;;;;;;;3.27;1.10;;;;;;;9.67;100.00;95701.88;5029921;28;104939;-59
2021/12/29 09:39:01;;;;;;;1.53;0.97;;;;;;;9.70;100.00;95693.41;5031094;28;103430;-60
2021/12/29 09:41:43;;;;;;;4.03;1.50;;;;;;;9.76;100.00;95710.94;5030624;28;102476;-59
2021/12/29 09:44:11;;;;;;;5.37;1.33;;;;;;;9.78;100.00;95711.47;5010506;28;105221;-59
2021/12/29 09:46:39;;;;;;;4.07;1.40;;;;;;;9.81;100.00;95713.63;5013419;28;102060;-59
2021/12/29 09:49:07;;;;;;;4.87;1.20;;;;;;;9.82;100.00;95723.97;5009884;28;104829;-59
2021/12/29 09:51:34;;;;;;;4.70;1.10;;;;;;;9.84;100.00;95719.22;5009951;28;105345;-59
2021/12/29 09:54:04;;;;;;;3.87;1.40;;;;;;;9.87;100.00;95712.56;5010624;28;101896;-59
2021/12/29 09:56:31;;;;;;;7.17;1.70;;;;;;;9.87;100.00;95715.22;5010572;28;105260;-59
2021/12/29 09:58:59;;;;;;;4.97;1.43;;;;;;;9.90;100.00;95722.66;5009524;28;105869;-59
2021/12/29 10:01:27;;;;;;;4.37;1.17;;;;;;;9.95;100.00;95712.84;5010530;28;102183;-59
2021/12/29 10:03:54;;;;;;;3.63;1.20;;;;;;;9.94;100.00;95715.78;5010584;28;105155;-59
2021/12/29 10:06:21;;;;;;;4.97;1.20;;;;;;;9.98;100.00;95714.97;5013133;28;105088;-59
2021/12/29 10:12:31;;;;;;;2.60;1.00;;;;;;;10.00;100.00;95718.19;5009270;27;102036;-59
2021/12/29 10:15:02;;;;;;;3.47;1.13;;;;;;;10.01;100.00;95697.72;5020096;28;102014;-59
2021/12/29 10:17:29;;;;;;;6.27;1.50;;;;;;;10.01;100.00;95709.16;5031865;28;102774;-59
2021/12/29 10:20:02;;;;;;;7.53;1.43;;;;;;;10.05;100.00;95712.09;5029634;28;103780;-59
2021/12/29 10:22:30;;;;;;;5.73;1.10;;;;;;;10.03;100.00;95719.53;5031924;27;101698;-59
2021/12/29 10:25:06;;;;;;;4.50;1.67;;;;;;;10.05;100.00;95712.09;5030131;28;104875;-59
2021/12/29 10:27:35;;;;;;;4.53;1.20;;;;;;;10.07;100.00;95710.78;5029805;28;105074;-59
2021/12/29 10:30:05;;;;;;;8.03;1.53;;;;;;;10.07;100.00;95721.41;5033775;28;102170;-59
2021/12/29 10:32:33;;;;;;;7.60;1.90;;;;;;;10.10;100.00;95714.78;5029440;28;105157;-59
2021/12/29 10:35:00;;;;;;;3.90;1.07;;;;;;;10.11;100.00;95714.53;5030046;28;102326;-59
2021/12/29 10:37:28;;;;;;;4.40;1.63;;;;;;;10.11;100.00;95711.88;5030318;28;105146;-59
2021/12/29 10:39:57;;;;;;;4.30;1.73;;;;;;;10.15;100.00;95712.91;5029204;28;105549;-59
2021/12/29 10:42:26;;;;;;;5.40;1.50;;;;;;;10.22;100.00;95720.63;5030008;28;101992;-59
2021/12/29 10:44:59;;;;;;;5.63;1.87;;;;;;;10.29;100.00;95731.78;5029757;28;104950;-59
2021/12/29 10:47:27;;;;;;;4.63;1.40;;;;;;;10.30;100.00;95739.50;5029335;28;106129;-59
2021/12/29 10:49:58;;;;;;;7.33;1.20;;;;;;;10.38;100.00;95735.53;5029894;28;103371;-59
2021/12/29 10:52:34;;;;;;;6.80;1.53;;;;;;;10.52;100.00;95728.63;5032693;28;106316;-59
2021/12/29 10:55:01;;;;;;;4.40;1.50;;;;;;;10.58;100.00;95730.25;5029591;28;101970;-59
2021/12/29 10:57:28;;;;;;;4.53;1.30;;;;;;;10.64;100.00;95729.16;5029836;28;105218;-59
2021/12/29 10:59:58;;;;;;;6.83;1.30;;;;;;;10.77;100.00;95728.63;5028438;28;106137;-59
2021/12/29 11:02:30;;;;;;;5.73;1.60;;;;;;;10.91;100.00;95727.81;5029762;28;101957;-59
2021/12/29 11:05:03;;;;;;;4.70;1.63;;;;;;;10.94;100.00;95739.78;5031028;28;101731;-59
2021/12/29 11:07:32;;;;;;;3.80;1.07;;;;;;;10.85;100.00;95736.84;5030585;28;103135;-59
2021/12/29 11:10:08;;;;;;;4.40;1.30;;;;;;;10.91;100.00;95743.75;5030950;28;101707;-59
2021/12/29 11:12:45;;;;;;;5.27;1.27;;;;;;;10.97;100.00;95736.59;5029585;28;105102;-59
2021/12/29 11:15:18;;;;;;;6.27;1.60;;;;;;;10.98;100.00;95743.50;5033717;28;103232;-59
2021/12/29 11:17:46;;;;;;;7.03;1.40;;;;;;;11.12;100.00;95736.56;5028813;27;104074;-59
2021/12/29 11:20:19;;;;;;;19.43;2.37;;;;;;;11.23;100.00;95744.25;5028841;28;104226;-59
2021/12/29 11:22:46;;;;;;;4.90;1.40;;;;;;;11.14;100.00;95742.41;5029622;28;101806;-61
2021/12/29 11:25:13;;;;;;;7.10;1.30;;;;;;;11.03;100.00;95728.34;5029168;28;103612;-59
2021/12/29 11:27:41;;;;;;;3.27;1.47;;;;;;;10.98;100.00;95740.84;5028772;28;103863;-60
2021/12/29 11:30:11;;;;;;;2.63;1.10;;;;;;;10.90;100.00;95733.41;5029340;28;101848;-60
2021/12/29 11:32:42;;;;;;;4.07;1.27;;;;;;;10.86;100.00;95748.31;5029301;28;104827;-60
2021/12/29 11:35:13;;;;;;;4.10;1.37;;;;;;;10.82;100.00;95747.22;5028692;28;105011;-60
2021/12/29 11:37:42;;;;;;;5.47;1.33;;;;;;;10.83;100.00;95748.81;5032540;28;102249;-60